createdAt,value
2023-02-11T00:01:41.149Z,102507.40
2023-02-11T00:04:09.734Z,102502.60
2023-02-11T00:06:38.523Z,102496.80
2023-02-11T00:09:07.830Z,102502.20
2023-02-11T00:11:36.617Z,102485.20
2023-02-11T00:14:10.729Z,102477.80
2023-02-11T00:16:39.547Z,102460.20
2023-02-11T00:19:08.011Z,102463.20
2023-02-11T00:21:36.806Z,102458.40
2023-02-11T00:24:06.395Z,102452.60
2023-02-11T00:26:36.624Z,102444.00
2023-02-11T00:29:06.134Z,102439.80
2023-02-11T00:31:35.112Z,102430.20
2023-02-11T00:34:03.892Z,102430.40
2023-02-11T00:36:32.999Z,102437.40
2023-02-11T00:39:01.588Z,102447.60
2023-02-11T00:41:30.678Z,102440.20
2023-02-11T00:44:04.231Z,102441.40
2023-02-11T00:46:33.006Z,102426.20
2023-02-11T00:49:01.665Z,102421.60
2023-02-11T00:51:31.365Z,102423.60
2023-02-11T00:53:59.951Z,102415.00
2023-02-11T00:56:28.743Z,102416.40
2023-02-11T00:58:58.414Z,102419.80
2023-02-11T01:01:27.066Z,102420.40
2023-02-11T01:03:55.734Z,102408.60
2023-02-11T01:06:25.282Z,102400.80
2023-02-11T01:08:53.924Z,102400.20
2023-02-11T01:11:23.422Z,102395.20
2023-02-11T01:13:52.015Z,102381.40
2023-02-11T01:16:21.395Z,102381.60
2023-02-11T01:18:50.101Z,102360.80
2023-02-11T01:21:19.922Z,102372.00
2023-02-11T01:23:48.503Z,102376.80
2023-02-11T01:26:17.490Z,102377.20
2023-02-11T01:28:46.076Z,102382.60
2023-02-11T01:31:15.450Z,102380.00
2023-02-11T01:33:44.174Z,102386.60
2023-02-11T01:36:13.787Z,102377.60
2023-02-11T01:38:43.996Z,102375.00
2023-02-11T01:41:15.203Z,102357.00
2023-02-11T01:43:48.544Z,102336.40
2023-02-11T01:46:38.809Z,102322.80
2023-02-11T01:49:16.992Z,102331.80
2023-02-11T01:52:05.708Z,102338.20
2023-02-11T01:55:02.367Z,102345.00
2023-02-11T01:57:35.625Z,102364.20
2023-02-11T02:00:25.927Z,102374.40
2023-02-11T02:03:18.127Z,102349.80
2023-02-11T02:06:06.311Z,102342.80
2023-02-11T02:08:50.666Z,102356.00
2023-02-11T02:11:19.555Z,102344.40
2023-02-11T02:13:49.674Z,102343.60
2023-02-11T02:16:21.749Z,102345.40
2023-02-11T02:19:34.971Z,102346.40
2023-02-11T02:22:33.253Z,102355.40
2023-02-11T02:25:21.189Z,102346.40
2023-02-11T02:28:12.869Z,102342.20
2023-02-11T02:31:18.803Z,102343.60
2023-02-11T02:34:13.775Z,102347.40
2023-02-11T02:37:12.978Z,102344.60
2023-02-11T02:39:41.979Z,102333.60
2023-02-11T02:42:10.965Z,102331.60
2023-02-11T02:44:39.652Z,102324.40
2023-02-11T02:47:08.243Z,102323.00
2023-02-11T02:49:36.924Z,102321.00
2023-02-11T02:52:24.763Z,102316.40
2023-02-11T02:55:41.682Z,102314.00
2023-02-11T02:58:34.637Z,102315.00
2023-02-11T03:01:42.747Z,102326.40
2023-02-11T03:04:46.662Z,102309.00
2023-02-11T03:07:55.291Z,102278.00
2023-02-11T03:10:30.588Z,102267.00
2023-02-11T03:12:59.930Z,102257.60
2023-02-11T03:15:32.761Z,102237.20
2023-02-11T03:18:03.921Z,102250.00
2023-02-11T03:20:37.415Z,102266.00
2023-02-11T03:23:21.398Z,102267.20
2023-02-11T03:26:03.099Z,102273.60
2023-02-11T03:29:08.340Z,102257.20
2023-02-11T03:32:09.120Z,102270.00
2023-02-11T03:34:50.881Z,102274.60
2023-02-11T03:37:27.856Z,102274.40
2023-02-11T03:40:16.102Z,102270.80
2023-02-11T03:42:53.646Z,102275.80
2023-02-11T03:45:25.011Z,102262.40
2023-02-11T03:48:02.436Z,102256.20
2023-02-11T03:50:35.376Z,102246.60
2023-02-11T03:53:04.721Z,102246.60
2023-02-11T03:55:38.531Z,102245.60
2023-02-11T03:58:08.722Z,102252.20
2023-02-11T04:00:41.888Z,102246.80
2023-02-11T04:03:11.502Z,102247.00
2023-02-11T04:05:40.783Z,102247.20
2023-02-11T04:08:09.876Z,102243.20
2023-02-11T04:10:38.536Z,102236.60
2023-02-11T04:13:07.325Z,102234.20
2023-02-11T04:15:35.908Z,102224.60
2023-02-11T04:18:05.291Z,102225.60
2023-02-11T04:20:34.100Z,102221.40
2023-02-11T04:23:02.585Z,102215.80
2023-02-11T04:25:31.370Z,102206.00
2023-02-11T04:28:00.012Z,102206.40
2023-02-11T04:30:29.052Z,102196.00
2023-02-11T04:32:59.156Z,102196.80
2023-02-11T04:35:27.675Z,102181.80
2023-02-11T04:37:56.548Z,102186.40
2023-02-11T04:40:25.048Z,102189.00
2023-02-11T04:42:53.724Z,102190.00
2023-02-11T04:45:22.209Z,102185.00
2023-02-11T04:47:50.888Z,102195.00
2023-02-11T04:50:19.682Z,102194.40
2023-02-11T04:52:48.360Z,102205.80
2023-02-11T04:55:17.058Z,102214.60
2023-02-11T04:57:45.530Z,102220.80
2023-02-11T05:00:15.298Z,102218.20
2023-02-11T05:02:43.824Z,102218.60
2023-02-11T05:05:12.510Z,102216.60
2023-02-11T05:07:41.402Z,102215.80
2023-02-11T05:10:10.192Z,102213.80
2023-02-11T05:12:38.877Z,102216.80
2023-02-11T05:15:08.076Z,102220.20
2023-02-11T05:17:36.558Z,102213.80
2023-02-11T05:20:06.131Z,102204.80
2023-02-11T05:22:34.752Z,102192.80
2023-02-11T05:25:03.852Z,102185.40
2023-02-11T05:27:32.431Z,102170.40
2023-02-11T05:30:01.132Z,102163.40
2023-02-11T05:32:30.323Z,102169.60
2023-02-11T05:34:59.004Z,102168.00
2023-02-11T05:37:27.625Z,102165.40
2023-02-11T05:39:56.276Z,102158.20
2023-02-11T05:42:24.760Z,102155.20
2023-02-11T05:44:53.565Z,102150.00
2023-02-11T05:47:22.343Z,102147.40
2023-02-11T05:49:52.123Z,102146.20
2023-02-11T05:52:22.620Z,102155.40
2023-02-11T05:54:51.483Z,102147.00
2023-02-11T05:57:20.161Z,102143.40
2023-02-11T05:59:48.740Z,102137.20
2023-02-11T06:02:17.447Z,102134.60
2023-02-11T06:04:46.215Z,102134.60
2023-02-11T06:07:15.004Z,102144.00
2023-02-11T06:09:43.695Z,102143.60
2023-02-11T06:12:12.386Z,102151.60
2023-02-11T06:14:41.274Z,102147.20
2023-02-11T06:17:09.961Z,102153.20
2023-02-11T06:19:38.753Z,102163.80
2023-02-11T06:22:07.537Z,102159.00
2023-02-11T06:24:59.866Z,102155.00
2023-02-11T06:27:26.321Z,102147.80
2023-02-11T06:29:54.896Z,102151.80
2023-02-11T06:32:42.799Z,102156.20
2023-02-11T06:35:14.822Z,102156.80
2023-02-11T06:37:43.973Z,102170.20
2023-02-11T06:40:13.412Z,102171.00
2023-02-11T06:42:42.804Z,102173.00
2023-02-11T06:45:13.288Z,102174.40
2023-02-11T06:47:42.355Z,102163.60
2023-02-11T06:50:14.240Z,102164.60
2023-02-11T06:52:42.786Z,102156.20
2023-02-11T06:55:11.568Z,102149.60
2023-02-11T06:57:40.260Z,102142.60
2023-02-11T07:00:10.378Z,102132.20
2023-02-11T07:02:38.938Z,102137.00
2023-02-11T07:05:08.942Z,102138.80
2023-02-11T07:07:38.074Z,102136.20
2023-02-11T07:10:07.498Z,102136.00
2023-02-11T07:12:36.065Z,102129.20
2023-02-11T07:15:06.463Z,102124.60
2023-02-11T07:17:36.245Z,102128.00
2023-02-11T07:20:05.598Z,102119.40
2023-02-11T07:22:35.135Z,102107.20
2023-02-11T07:25:04.712Z,102108.80
2023-02-11T07:27:33.501Z,102104.40
2023-02-11T07:30:01.986Z,102093.80
2023-02-11T07:32:30.567Z,102090.40
2023-02-11T07:34:59.382Z,102098.40
2023-02-11T07:37:29.204Z,102087.20
2023-02-11T07:39:57.752Z,102089.60
2023-02-11T07:42:26.455Z,102084.20
2023-02-11T07:44:55.027Z,102090.80
2023-02-11T07:47:23.710Z,102084.40
2023-02-11T07:49:56.162Z,102068.40
2023-02-11T07:52:25.188Z,102076.00
2023-02-11T07:54:54.082Z,102072.40
2023-02-11T07:57:23.276Z,102072.40
2023-02-11T07:59:52.480Z,102071.80
2023-02-11T08:02:21.206Z,102066.60
2023-02-11T08:04:51.073Z,102069.20
2023-02-11T08:07:20.615Z,102071.00
2023-02-11T08:09:49.675Z,102083.80
2023-02-11T08:12:18.256Z,102082.80
2023-02-11T08:14:47.558Z,102073.00
2023-02-11T08:17:16.243Z,102098.80
2023-02-11T08:19:46.076Z,102118.80
2023-02-11T08:22:14.645Z,102115.00
2023-02-11T08:24:43.545Z,102119.40
2023-02-11T08:27:12.121Z,102122.20
2023-02-11T08:29:40.908Z,102123.20
2023-02-11T08:32:09.652Z,102133.60
2023-02-11T08:34:38.484Z,102132.80
2023-02-11T08:37:07.381Z,102135.20
2023-02-11T08:39:36.067Z,102140.00
2023-02-11T08:42:04.749Z,102137.60
2023-02-11T08:44:33.332Z,102127.40
2023-02-11T08:47:02.343Z,102122.00
2023-02-11T08:49:32.653Z,102124.00
2023-02-11T08:52:04.733Z,102110.40
2023-02-11T08:54:34.633Z,102104.40
2023-02-11T08:57:03.628Z,102099.80
2023-02-11T08:59:32.313Z,102097.20
2023-02-11T09:02:01.086Z,102086.00
2023-02-11T09:04:29.791Z,102087.00
2023-02-11T09:06:58.793Z,102093.60
2023-02-11T09:09:27.369Z,102100.40
2023-02-11T09:11:57.551Z,102091.20
2023-02-11T09:14:27.407Z,102087.60
2023-02-11T09:16:56.875Z,102094.00
2023-02-11T09:19:26.315Z,102092.00
2023-02-11T09:21:55.021Z,102088.40
2023-02-11T09:24:23.690Z,102080.20
2023-02-11T09:26:52.278Z,102079.60
2023-02-11T09:29:21.065Z,102084.40
2023-02-11T09:31:50.170Z,102083.60
2023-02-11T09:34:18.851Z,102100.20
2023-02-11T09:36:47.539Z,102113.40
2023-02-11T09:39:20.461Z,102117.40
2023-02-11T09:42:10.213Z,102113.40
2023-02-11T09:44:40.219Z,102113.00
2023-02-11T09:47:32.978Z,102112.60
2023-02-11T09:50:15.337Z,102116.40
2023-02-11T09:52:51.933Z,102132.60
2023-02-11T09:55:39.933Z,102124.80
2023-02-11T09:58:14.997Z,102130.80
2023-02-11T10:00:45.263Z,102138.80
2023-02-11T10:03:18.651Z,102142.20
2023-02-11T10:06:44.886Z,102133.00
2023-02-11T10:09:48.211Z,102136.60
2023-02-11T10:12:40.225Z,102140.40
2023-02-11T10:15:38.925Z,102146.00
2023-02-11T10:18:45.609Z,102134.20
2023-02-11T10:21:40.837Z,102136.00
2023-02-11T10:24:14.915Z,102145.20
2023-02-11T10:26:46.062Z,102140.20
2023-02-11T10:29:42.393Z,102129.60
2023-02-11T10:32:26.030Z,102128.40
2023-02-11T10:35:01.029Z,102134.20
2023-02-11T10:37:31.386Z,102126.80
2023-02-11T10:39:59.874Z,102113.20
2023-02-11T10:42:29.378Z,102099.20
2023-02-11T10:45:07.471Z,102087.80
2023-02-11T10:47:39.512Z,102084.80
2023-02-11T10:50:25.307Z,102085.00
2023-02-11T10:53:17.682Z,102078.00
2023-02-11T10:55:56.367Z,102076.40
2023-02-11T10:58:54.176Z,102073.60
2023-02-11T11:01:24.941Z,102065.00
2023-02-11T11:03:53.759Z,102063.80
2023-02-11T11:06:33.916Z,102056.20
2023-02-11T11:09:02.438Z,102044.80
2023-02-11T11:11:31.228Z,102039.00
2023-02-11T11:14:03.418Z,102031.00
2023-02-11T11:16:37.098Z,102027.00
2023-02-11T11:19:08.691Z,102024.80
2023-02-11T11:21:46.736Z,102032.00
2023-02-11T11:24:28.036Z,102039.60
2023-02-11T11:27:03.749Z,102050.80
2023-02-11T11:29:38.895Z,102042.80
2023-02-11T11:32:20.729Z,102044.80
2023-02-11T11:35:47.432Z,102036.00
2023-02-11T11:39:07.880Z,102028.80
2023-02-11T11:42:38.026Z,102032.80
2023-02-11T11:45:16.220Z,102026.20
2023-02-11T11:48:10.823Z,102036.40
2023-02-11T11:51:04.647Z,102038.00
2023-02-11T11:53:53.752Z,102040.60
2023-02-11T11:56:38.902Z,102053.60
2023-02-11T11:59:20.814Z,102060.80
2023-02-11T12:02:28.420Z,102069.00
2023-02-11T12:05:16.047Z,102058.60
2023-02-11T12:08:10.954Z,102066.20
2023-02-11T12:11:03.197Z,102061.80
2023-02-11T12:13:50.821Z,102068.60
2023-02-11T12:16:49.701Z,102061.80
2023-02-11T12:19:53.592Z,102064.20
2023-02-11T12:22:55.985Z,102071.40
2023-02-11T12:25:36.152Z,102076.80
2023-02-11T12:28:36.089Z,102072.00
2023-02-11T12:31:23.724Z,102062.60
2023-02-11T12:34:17.473Z,102058.00
2023-02-11T12:37:06.208Z,102059.60
2023-02-11T12:40:45.264Z,102059.60
2023-02-11T12:43:25.856Z,102053.00
2023-02-11T12:46:15.428Z,102052.20
2023-02-11T12:49:38.700Z,102057.40
2023-02-11T12:52:19.509Z,102060.80
2023-02-11T12:55:18.074Z,102066.00
2023-02-11T12:57:53.558Z,102066.00
2023-02-11T13:00:52.052Z,102062.60
2023-02-11T13:04:00.590Z,102061.00
2023-02-11T13:07:09.651Z,102063.80
2023-02-11T13:09:54.499Z,102060.20
2023-02-11T13:12:44.988Z,102059.80
2023-02-11T13:15:16.095Z,102063.60
2023-02-11T13:18:04.789Z,102061.60
2023-02-11T13:21:17.818Z,102059.20
2023-02-11T13:24:50.090Z,102056.80
2023-02-11T13:27:59.514Z,102053.60
2023-02-11T13:30:35.472Z,102057.00
2023-02-11T13:33:32.540Z,102057.80
2023-02-11T13:36:04.906Z,102057.40
2023-02-11T13:38:37.444Z,102057.40
2023-02-11T13:41:38.050Z,102057.60
2023-02-11T13:44:10.293Z,102060.40
2023-02-11T13:47:11.136Z,102064.40
2023-02-11T13:49:49.465Z,102061.60
2023-02-11T13:52:32.944Z,102052.40
2023-02-11T13:55:24.715Z,102054.40
2023-02-11T13:58:32.820Z,102053.60
2023-02-11T14:01:01.633Z,102056.60
2023-02-11T14:03:56.303Z,102066.00
2023-02-11T14:06:47.524Z,102073.60
2023-02-11T14:09:17.535Z,102080.00
2023-02-11T14:11:56.568Z,102077.40
2023-02-11T14:14:28.744Z,102078.60
2023-02-11T14:17:00.464Z,102082.80
2023-02-11T14:19:43.973Z,102079.20
2023-02-11T14:22:42.722Z,102091.00
2023-02-11T14:25:26.983Z,102085.00
2023-02-11T14:28:34.651Z,102089.40
2023-02-11T14:31:12.050Z,102090.40
2023-02-11T14:33:58.579Z,102087.80
2023-02-11T14:36:59.930Z,102089.80
2023-02-11T14:40:12.468Z,102093.20
2023-02-11T14:42:41.449Z,102099.20
2023-02-11T14:45:16.455Z,102098.00
2023-02-11T14:48:03.078Z,102099.80
2023-02-11T14:50:50.667Z,102095.00
2023-02-11T14:53:26.139Z,102103.00
2023-02-11T14:55:56.127Z,102112.80
2023-02-11T14:58:31.341Z,102103.60
2023-02-11T15:01:12.090Z,102104.80
2023-02-11T15:03:48.298Z,102109.20
2023-02-11T15:06:24.617Z,102107.60
2023-02-11T15:09:01.146Z,102115.00
2023-02-11T15:11:40.109Z,102112.80
2023-02-11T15:14:25.249Z,102111.40
2023-02-11T15:16:58.393Z,102114.60
2023-02-11T15:19:45.264Z,102118.00
2023-02-11T15:22:25.156Z,102114.40
2023-02-11T15:25:12.156Z,102115.00
2023-02-11T15:27:43.875Z,102123.60
2023-02-11T15:30:25.951Z,102128.00
2023-02-11T15:32:59.617Z,102127.00
2023-02-11T15:35:41.319Z,102134.00
2023-02-11T15:38:13.642Z,102126.20
2023-02-11T15:41:03.359Z,102134.00
2023-02-11T15:43:45.161Z,102132.00
2023-02-11T15:46:23.759Z,102134.00
2023-02-11T15:48:54.707Z,102133.20
2023-02-11T15:51:36.491Z,102126.00
2023-02-11T15:54:20.052Z,102135.20
2023-02-11T15:56:51.958Z,102138.60
2023-02-11T15:59:27.943Z,102142.40
2023-02-11T16:01:59.253Z,102152.60
2023-02-11T16:04:28.603Z,102149.20
2023-02-11T16:06:59.142Z,102152.20
2023-02-11T16:09:36.583Z,102151.00
2023-02-11T16:12:27.465Z,102150.00
2023-02-11T16:15:00.127Z,102150.20
2023-02-11T16:17:29.828Z,102157.00
2023-02-11T16:19:58.518Z,102165.00
2023-02-11T16:22:30.691Z,102167.40
2023-02-11T16:25:00.217Z,102166.40
2023-02-11T16:27:40.056Z,102169.60
2023-02-11T16:30:39.362Z,102170.20
2023-02-11T16:33:11.732Z,102169.40
2023-02-11T16:35:40.828Z,102177.40
2023-02-11T16:38:09.519Z,102173.60
2023-02-11T16:40:38.087Z,102181.40
2023-02-11T16:43:06.880Z,102176.20
2023-02-11T16:45:39.236Z,102178.80
2023-02-11T16:48:09.582Z,102173.80
2023-02-11T16:50:38.263Z,102182.00
2023-02-11T16:53:07.055Z,102185.60
2023-02-11T16:55:35.643Z,102192.80
2023-02-11T16:58:04.222Z,102197.80
2023-02-11T17:00:33.038Z,102202.00
2023-02-11T17:03:02.004Z,102205.80
2023-02-11T17:05:33.044Z,102213.60
2023-02-11T17:08:06.644Z,102221.60
2023-02-11T17:10:35.231Z,102225.20
2023-02-11T17:13:05.272Z,102230.00
2023-02-11T17:15:34.413Z,102232.20
2023-02-11T17:18:03.392Z,102233.20
2023-02-11T17:20:32.024Z,102230.20
2023-02-11T17:23:00.612Z,102231.80
2023-02-11T17:25:29.193Z,102240.80
2023-02-11T17:27:57.784Z,102243.40
2023-02-11T17:30:26.361Z,102250.80
2023-02-11T17:32:55.046Z,102245.80
2023-02-11T17:35:23.632Z,102250.20
2023-02-11T17:37:52.317Z,102251.60
2023-02-11T17:40:21.210Z,102250.20
2023-02-11T17:42:50.649Z,102248.80
2023-02-11T17:45:22.081Z,102254.20
2023-02-11T17:47:51.170Z,102270.00
2023-02-11T17:50:19.965Z,102274.80
2023-02-11T17:52:48.537Z,102280.80
2023-02-11T17:55:17.326Z,102288.60
2023-02-11T17:57:45.909Z,102296.60
2023-02-11T18:00:15.873Z,102302.80
2023-02-11T18:02:44.715Z,102308.00
2023-02-11T18:05:13.409Z,102307.20
2023-02-11T18:07:42.296Z,102310.20
2023-02-11T18:10:11.785Z,102309.40
2023-02-11T18:12:40.292Z,102317.00
2023-02-11T18:15:09.760Z,102317.60
2023-02-11T18:17:38.381Z,102323.60
2023-02-11T18:20:08.949Z,102325.60
2023-02-11T18:22:40.465Z,102328.60
2023-02-11T18:25:13.502Z,102338.20
2023-02-11T18:27:42.653Z,102338.80
2023-02-11T18:30:18.126Z,102341.80
2023-02-11T18:32:46.685Z,102349.00
2023-02-11T18:35:16.288Z,102349.80
2023-02-11T18:37:44.876Z,102362.20
2023-02-11T18:40:15.206Z,102363.60
2023-02-11T18:42:46.257Z,102372.00
2023-02-11T18:45:15.951Z,102373.40
2023-02-11T18:47:44.545Z,102369.20
2023-02-11T18:50:15.822Z,102375.60
2023-02-11T18:52:44.375Z,102373.80
2023-02-11T18:55:13.263Z,102381.80
2023-02-11T18:57:43.292Z,102384.80
2023-02-11T19:00:13.331Z,102390.20
2023-02-11T19:02:42.704Z,102391.20
2023-02-11T19:05:11.695Z,102396.40
2023-02-11T19:07:40.388Z,102395.80
2023-02-11T19:10:10.497Z,102397.20
2023-02-11T19:12:39.700Z,102402.40
2023-02-11T19:15:09.112Z,102410.00
2023-02-11T19:17:37.692Z,102409.40
2023-02-11T19:20:08.086Z,102411.80
2023-02-11T19:22:36.595Z,102413.20
2023-02-11T19:25:07.389Z,102415.80
2023-02-11T19:27:36.017Z,102422.40
2023-02-11T19:30:05.764Z,102423.40
2023-02-11T19:32:34.310Z,102427.60
2023-02-11T19:35:04.139Z,102436.60
2023-02-11T19:37:32.709Z,102446.40
2023-02-11T19:40:01.616Z,102450.80
2023-02-11T19:42:30.292Z,102442.80
2023-02-11T19:44:59.282Z,102438.40
2023-02-11T19:47:28.069Z,102444.00
2023-02-11T19:49:56.997Z,102453.80
2023-02-11T19:52:26.342Z,102451.00
2023-02-11T19:54:55.158Z,102444.60
2023-02-11T19:57:23.847Z,102448.40
2023-02-11T19:59:55.130Z,102453.40
2023-02-11T20:02:24.039Z,102454.00
2023-02-11T20:04:53.013Z,102451.00
2023-02-11T20:07:21.877Z,102454.40
2023-02-11T20:09:50.351Z,102456.20
2023-02-11T20:12:19.039Z,102452.20
2023-02-11T20:14:47.828Z,102461.00
2023-02-11T20:17:16.408Z,102466.40
2023-02-11T20:19:45.196Z,102466.60
2023-02-11T20:22:14.087Z,102464.40
2023-02-11T20:24:43.003Z,102468.60
2023-02-11T20:27:13.513Z,102473.20
2023-02-11T20:29:42.105Z,102481.60
2023-02-11T20:32:11.187Z,102485.20
2023-02-11T20:34:40.185Z,102492.80
2023-02-11T20:37:08.979Z,102496.20
2023-02-11T20:39:41.107Z,102502.00
2023-02-11T20:42:15.177Z,102498.00
2023-02-11T20:44:43.836Z,102502.80
2023-02-11T20:47:13.141Z,102505.80
2023-02-11T20:49:41.825Z,102513.40
2023-02-11T20:52:10.720Z,102517.60
2023-02-11T20:54:39.317Z,102512.20
2023-02-11T20:57:07.888Z,102510.40
2023-02-11T20:59:36.709Z,102508.40
2023-02-11T21:02:06.069Z,102503.80
2023-02-11T21:04:34.868Z,102514.20
2023-02-11T21:07:03.557Z,102522.80
2023-02-11T21:09:33.775Z,102523.20
2023-02-11T21:12:03.191Z,102529.20
2023-02-11T21:14:31.790Z,102537.80
2023-02-11T21:17:00.689Z,102535.00
2023-02-11T21:19:29.454Z,102537.60
2023-02-11T21:22:00.904Z,102535.80
2023-02-11T21:24:31.336Z,102539.20
2023-02-11T21:27:00.127Z,102542.40
2023-02-11T21:29:29.626Z,102547.60
2023-02-11T21:31:58.603Z,102547.80
2023-02-11T21:34:27.524Z,102545.60
2023-02-11T21:36:56.200Z,102540.40
2023-02-11T21:39:25.193Z,102546.00
2023-02-11T21:41:56.356Z,102555.40
2023-02-11T21:44:24.929Z,102564.00
2023-02-11T21:46:53.742Z,102561.80
2023-02-11T21:49:22.709Z,102569.40
2023-02-11T21:51:51.393Z,102571.20
2023-02-11T21:54:20.492Z,102573.80
2023-02-11T21:56:51.896Z,102577.00
2023-02-11T21:59:20.538Z,102583.40
2023-02-11T22:01:49.521Z,102586.40
2023-02-11T22:04:18.568Z,102590.60
2023-02-11T22:06:47.817Z,102592.80
2023-02-11T22:09:16.716Z,102600.60
2023-02-11T22:11:45.605Z,102604.40
2023-02-11T22:14:14.491Z,102608.80
2023-02-11T22:16:46.264Z,102608.60
2023-02-11T22:19:15.578Z,102614.40
2023-02-11T22:21:44.855Z,102620.00
2023-02-11T22:24:13.444Z,102619.00
2023-02-11T22:26:42.842Z,102621.40
2023-02-11T22:29:12.630Z,102629.60
2023-02-11T22:31:41.572Z,102632.80
2023-02-11T22:34:10.950Z,102635.60
2023-02-11T22:36:42.296Z,102640.00
2023-02-11T22:39:18.006Z,102644.80
2023-02-11T22:41:48.038Z,102657.00
2023-02-11T22:44:17.715Z,102656.60
2023-02-11T22:46:46.894Z,102660.00
2023-02-11T22:49:18.729Z,102662.00
2023-02-11T22:51:47.926Z,102662.00
2023-02-11T22:54:19.105Z,102665.80
2023-02-11T22:56:51.573Z,102672.20
2023-02-11T22:59:21.589Z,102676.80
2023-02-11T23:01:50.394Z,102676.80
2023-02-11T23:04:22.047Z,102683.00
2023-02-11T23:06:51.722Z,102682.00
2023-02-11T23:09:20.411Z,102677.80
2023-02-11T23:11:49.712Z,102674.40
2023-02-11T23:14:20.279Z,102681.00
2023-02-11T23:16:51.936Z,102686.00
2023-02-11T23:19:23.275Z,102682.80
2023-02-11T23:21:53.474Z,102689.60
2023-02-11T23:24:22.055Z,102686.60
2023-02-11T23:26:51.356Z,102687.80
2023-02-11T23:29:27.574Z,102684.40
2023-02-11T23:32:04.906Z,102693.60
2023-02-11T23:34:42.024Z,102697.80
2023-02-11T23:37:18.608Z,102699.60
2023-02-11T23:39:55.631Z,102697.00
2023-02-11T23:42:32.864Z,102702.00
2023-02-11T23:45:12.686Z,102698.80
2023-02-11T23:47:41.988Z,102706.00
2023-02-11T23:50:11.704Z,102705.40
2023-02-11T23:52:40.388Z,102701.80
2023-02-11T23:55:09.994Z,102703.60
2023-02-11T23:57:38.889Z,102711.20
